createdAt,value
2023-05-24T00:01:31.032Z,10.93
2023-05-24T00:04:04.453Z,10.93
2023-05-24T00:06:37.477Z,10.96
2023-05-24T00:09:09.724Z,10.92
2023-05-24T00:11:41.867Z,10.93
2023-05-24T00:14:19.979Z,10.91
2023-05-24T00:16:52.253Z,10.94
2023-05-24T00:19:24.640Z,10.92
2023-05-24T00:21:56.836Z,10.84
2023-05-24T00:24:29.044Z,10.77
2023-05-24T00:27:01.340Z,10.83
2023-05-24T00:29:33.576Z,10.80
2023-05-24T00:32:06.516Z,10.78
2023-05-24T00:34:38.878Z,10.91
2023-05-24T00:37:10.980Z,10.83
2023-05-24T00:39:44.510Z,10.86
2023-05-24T00:42:16.803Z,10.91
2023-05-24T00:44:49.431Z,10.90
2023-05-24T00:47:21.751Z,10.88
2023-05-24T00:50:00.333Z,10.90
2023-05-24T00:52:32.808Z,10.77
2023-05-24T00:55:06.021Z,10.83
2023-05-24T00:57:38.620Z,10.75
2023-05-24T01:00:11.611Z,10.82
2023-05-24T01:02:43.767Z,10.86
2023-05-24T01:05:17.765Z,10.90
2023-05-24T01:08:15.808Z,10.90
2023-05-24T01:11:23.102Z,10.87
2023-05-24T01:14:30.489Z,10.83
2023-05-24T01:17:16.042Z,10.91
2023-05-24T01:20:11.469Z,10.94
2023-05-24T01:23:07.794Z,10.93
2023-05-24T01:25:50.143Z,10.93
2023-05-24T01:28:24.500Z,10.79
2023-05-24T01:30:56.883Z,10.77
2023-05-24T01:33:29.870Z,10.78
2023-05-24T01:36:02.179Z,10.89
2023-05-24T01:38:34.411Z,10.99
2023-05-24T01:41:46.292Z,10.83
2023-05-24T01:45:18.100Z,10.75
2023-05-24T01:52:29.263Z,10.85
2023-05-24T02:03:09.031Z,10.90
2023-05-24T02:06:04.384Z,10.99
2023-05-24T02:08:39.156Z,11.01
2023-05-24T02:19:36.876Z,10.92
2023-05-24T02:26:14.221Z,10.88
2023-05-24T02:40:45.649Z,10.83
2023-05-24T02:47:23.683Z,10.68
2023-05-24T02:53:25.371Z,10.84
2023-05-24T02:56:43.609Z,10.91
2023-05-24T03:00:56.753Z,10.96
2023-05-24T03:03:53.588Z,10.94
2023-05-24T03:06:29.647Z,10.91
2023-05-24T03:13:20.991Z,10.90
2023-05-24T03:31:11.540Z,10.92
2023-05-24T03:34:43.289Z,10.97
2023-05-24T03:49:12.793Z,11.01
2023-05-24T03:52:27.096Z,11.03
2023-05-24T03:55:09.305Z,11.01
2023-05-24T03:58:28.535Z,11.06
2023-05-24T04:01:08.381Z,11.02
2023-05-24T04:03:59.109Z,10.97
2023-05-24T04:06:56.786Z,10.93
2023-05-24T04:09:29.839Z,10.90
2023-05-24T04:22:36.129Z,11.27
2023-05-24T04:25:16.216Z,11.29
2023-05-24T04:31:07.672Z,11.26
2023-05-24T04:33:45.217Z,11.29
2023-05-24T04:37:49.368Z,11.21
2023-05-24T04:40:52.665Z,11.16
2023-05-24T04:48:11.249Z,11.29
2023-05-24T04:51:25.492Z,11.23
2023-05-24T04:56:32.292Z,11.18
2023-05-24T04:59:08.647Z,11.25
2023-05-24T05:01:41.841Z,11.20
2023-05-24T05:04:19.859Z,11.10
2023-05-24T05:06:59.789Z,11.22
2023-05-24T05:09:33.080Z,11.35
2023-05-24T05:12:08.546Z,11.47
2023-05-24T05:14:53.114Z,11.48
2023-05-24T05:17:26.843Z,11.44
2023-05-24T05:20:01.901Z,11.43
2023-05-24T05:22:36.368Z,11.42
2023-05-24T05:25:12.443Z,11.40
2023-05-24T05:28:07.035Z,11.40
2023-05-24T05:30:45.504Z,11.36
2023-05-24T05:33:20.351Z,11.25
2023-05-24T05:35:55.129Z,11.31
2023-05-24T05:38:34.486Z,11.16
2023-05-24T05:41:09.194Z,11.23
2023-05-24T05:43:43.495Z,11.26
2023-05-24T05:46:23.646Z,11.36
2023-05-24T05:49:04.937Z,11.40
2023-05-24T05:55:18.157Z,11.52
2023-05-24T05:57:54.032Z,11.50
2023-05-24T06:05:08.097Z,11.60
2023-05-24T06:10:40.441Z,11.49
2023-05-24T06:16:09.315Z,11.54
2023-05-24T06:18:57.227Z,11.54
2023-05-24T06:22:07.156Z,11.63
2023-05-24T06:24:44.594Z,11.59
2023-05-24T06:27:17.609Z,11.58
2023-05-24T06:29:49.899Z,11.63
2023-05-24T06:32:22.364Z,11.73
2023-05-24T06:34:54.648Z,11.78
2023-05-24T06:37:26.900Z,11.65
2023-05-24T06:39:59.386Z,11.68
2023-05-24T06:42:31.713Z,11.77
2023-05-24T06:45:04.489Z,11.88
2023-05-24T06:47:37.502Z,11.88
2023-05-24T06:50:10.234Z,11.95
2023-05-24T06:52:44.172Z,12.04
2023-05-24T06:55:16.941Z,12.12
2023-05-24T06:57:49.481Z,12.09
2023-05-24T07:00:22.614Z,12.12
2023-05-24T07:02:55.157Z,12.16
2023-05-24T07:05:27.943Z,12.24
2023-05-24T07:08:00.520Z,12.29
2023-05-24T07:10:33.105Z,12.38
2023-05-24T07:13:05.678Z,12.36
2023-05-24T07:15:37.973Z,12.34
2023-05-24T07:18:10.622Z,12.42
2023-05-24T07:20:43.235Z,12.40
2023-05-24T07:23:15.991Z,12.27
2023-05-24T07:25:48.413Z,12.31
2023-05-24T07:28:20.609Z,12.31
2023-05-24T07:30:53.094Z,12.35
2023-05-24T07:33:25.575Z,12.41
2023-05-24T07:35:58.534Z,12.41
2023-05-24T07:38:31.434Z,12.44
2023-05-24T07:41:04.999Z,12.38
2023-05-24T07:43:37.932Z,12.45
2023-05-24T07:46:13.393Z,12.51
2023-05-24T07:48:46.307Z,12.46
2023-05-24T07:51:18.773Z,12.58
2023-05-24T07:53:51.553Z,12.67
2023-05-24T07:56:24.065Z,12.69
2023-05-24T07:59:03.848Z,12.71
2023-05-24T08:01:37.020Z,12.78
2023-05-24T08:04:13.126Z,12.78
2023-05-24T08:06:47.025Z,12.79
2023-05-24T08:09:19.315Z,12.71
2023-05-24T08:11:51.911Z,12.84
2023-05-24T08:14:24.217Z,12.84
2023-05-24T08:16:56.771Z,12.89
2023-05-24T08:19:35.900Z,12.97
2023-05-24T08:22:08.351Z,13.06
2023-05-24T08:24:40.990Z,13.07
2023-05-24T08:27:14.317Z,13.07
2023-05-24T08:29:46.865Z,13.16
2023-05-24T08:32:19.163Z,13.14
2023-05-24T08:34:57.762Z,13.15
2023-05-24T08:37:33.607Z,13.13
2023-05-24T08:40:09.911Z,13.15
2023-05-24T08:42:42.607Z,13.07
2023-05-24T08:45:16.378Z,13.11
2023-05-24T08:47:52.399Z,13.08
2023-05-24T08:50:25.177Z,13.11
2023-05-24T08:52:59.994Z,13.20
2023-05-24T08:55:33.628Z,13.16
2023-05-24T08:58:06.715Z,13.15
2023-05-24T09:00:39.049Z,13.19
2023-05-24T09:03:15.334Z,13.20
2023-05-24T09:05:48.299Z,13.19
2023-05-24T09:08:21.766Z,13.08
2023-05-24T09:10:56.430Z,13.03
2023-05-24T09:13:28.984Z,13.14
2023-05-24T09:16:02.661Z,13.17
2023-05-24T09:18:35.141Z,13.07
2023-05-24T09:21:08.851Z,13.04
2023-05-24T09:23:42.467Z,13.16
2023-05-24T09:26:15.053Z,13.40
2023-05-24T09:28:48.609Z,13.54
2023-05-24T09:31:32.722Z,13.55
2023-05-24T09:34:10.554Z,13.58
2023-05-24T09:36:43.476Z,13.56
2023-05-24T09:39:17.367Z,13.46
2023-05-24T09:41:57.491Z,13.46
2023-05-24T09:44:30.290Z,13.45
2023-05-24T09:47:06.974Z,13.50
2023-05-24T09:49:39.763Z,13.42
2023-05-24T09:52:17.978Z,13.49
2023-05-24T09:54:50.540Z,13.59
2023-05-24T09:57:25.597Z,13.69
2023-05-24T10:03:48.119Z,13.90
2023-05-24T10:06:21.755Z,14.19
2023-05-24T10:08:57.734Z,14.72
2023-05-24T10:11:30.167Z,15.41
2023-05-24T10:14:09.582Z,15.90
2023-05-24T10:17:00.734Z,15.87
2023-05-24T10:19:34.883Z,16.02
2023-05-24T10:22:09.277Z,16.20
2023-05-24T10:24:48.456Z,16.16
2023-05-24T10:27:32.017Z,16.25
2023-05-24T10:30:41.266Z,16.03
2023-05-24T10:33:15.082Z,15.84
2023-05-24T10:35:47.859Z,15.58
2023-05-24T10:38:24.719Z,15.29
2023-05-24T10:41:00.700Z,15.04
2023-05-24T10:43:33.263Z,15.07
2023-05-24T10:46:12.632Z,14.88
2023-05-24T10:48:45.888Z,14.95
2023-05-24T10:51:42.431Z,14.94
2023-05-24T10:54:24.925Z,14.93
2023-05-24T10:57:05.959Z,15.13
2023-05-24T10:59:45.538Z,15.02
2023-05-24T11:02:21.612Z,15.12
2023-05-24T11:04:58.064Z,15.24
2023-05-24T11:07:33.902Z,15.16
2023-05-24T11:10:15.378Z,14.96
2023-05-24T11:12:59.133Z,14.84
2023-05-24T11:15:31.341Z,14.76
2023-05-24T11:18:15.763Z,14.61
2023-05-24T11:20:48.963Z,14.64
2023-05-24T11:26:11.550Z,14.60
2023-05-24T11:28:47.987Z,14.56
2023-05-24T11:31:33.342Z,14.79
2023-05-24T11:34:10.118Z,14.75
2023-05-24T11:36:43.176Z,14.80
2023-05-24T11:39:16.484Z,14.79
2023-05-24T11:41:48.968Z,14.85
2023-05-24T11:44:22.365Z,14.89
2023-05-24T11:47:00.290Z,14.86
2023-05-24T11:52:13.359Z,14.91
2023-05-24T11:54:45.743Z,15.06
2023-05-24T11:57:26.563Z,15.18
2023-05-24T11:59:58.829Z,15.31
2023-05-24T12:02:34.576Z,15.37
2023-05-24T12:05:12.066Z,15.53
2023-05-24T12:07:49.067Z,15.59
2023-05-24T12:10:22.997Z,15.62
2023-05-24T12:12:55.329Z,15.40
2023-05-24T12:15:27.565Z,15.17
2023-05-24T12:18:00.353Z,14.83
2023-05-24T12:20:32.598Z,14.86
2023-05-24T12:23:04.747Z,15.14
2023-05-24T12:25:38.162Z,15.40
2023-05-24T12:28:10.669Z,15.77
2023-05-24T12:30:45.198Z,16.18
2023-05-24T12:33:20.777Z,16.75
2023-05-24T12:35:55.595Z,17.15
2023-05-24T12:38:35.690Z,17.70
2023-05-24T12:41:13.695Z,17.47
2023-05-24T12:43:46.433Z,17.21
2023-05-24T12:46:18.614Z,17.15
2023-05-24T12:48:50.751Z,17.16
2023-05-24T12:51:23.209Z,17.00
2023-05-24T12:55:15.132Z,16.76
2023-05-24T12:57:54.741Z,16.73
2023-05-24T13:00:29.050Z,16.96
2023-05-24T13:03:01.420Z,18.00
2023-05-24T13:05:33.695Z,18.63
2023-05-24T13:08:05.921Z,18.86
2023-05-24T13:10:44.015Z,18.42
2023-05-24T13:13:16.464Z,18.21
2023-05-24T13:15:49.192Z,17.91
2023-05-24T13:18:21.393Z,17.65
2023-05-24T13:20:53.631Z,17.34
2023-05-24T13:23:25.811Z,16.63
2023-05-24T13:25:58.151Z,16.61
2023-05-24T13:28:34.457Z,16.68
2023-05-24T13:31:06.914Z,16.53
2023-05-24T13:33:39.705Z,16.66
2023-05-24T13:36:12.516Z,16.34
2023-05-24T13:38:45.129Z,16.11
2023-05-24T13:41:17.280Z,15.96
2023-05-24T13:43:50.823Z,15.81
2023-05-24T13:46:23.787Z,15.78
2023-05-24T13:48:57.386Z,15.86
2023-05-24T13:52:58.470Z,15.56
2023-05-24T13:55:37.963Z,15.59
2023-05-24T13:58:10.557Z,15.73
2023-05-24T14:00:43.229Z,15.99
2023-05-24T14:03:16.122Z,16.18
2023-05-24T14:05:48.898Z,16.40
2023-05-24T14:08:21.355Z,16.56
2023-05-24T14:10:53.944Z,16.72
2023-05-24T14:14:20.370Z,16.71
2023-05-24T14:16:19.111Z,16.58
2023-05-24T14:18:52.162Z,16.43
2023-05-24T14:21:27.568Z,16.34
2023-05-24T14:24:00.299Z,16.27
2023-05-24T14:26:32.856Z,16.36
2023-05-24T14:29:05.218Z,16.34
2023-05-24T14:31:42.498Z,16.47
2023-05-24T14:34:14.742Z,16.51
2023-05-24T14:36:48.306Z,16.85
2023-05-24T14:39:20.647Z,16.78
2023-05-24T14:41:52.818Z,16.82
2023-05-24T14:44:25.030Z,16.83
2023-05-24T14:46:57.154Z,16.63
2023-05-24T14:49:29.408Z,16.41
2023-05-24T14:52:02.023Z,16.39
2023-05-24T14:54:34.165Z,16.50
2023-05-24T14:57:08.075Z,16.50
2023-05-24T14:59:40.956Z,16.80
2023-05-24T15:02:13.165Z,16.78
2023-05-24T15:04:45.304Z,16.87
2023-05-24T15:07:17.952Z,16.99
2023-05-24T15:09:50.063Z,16.78
2023-05-24T15:12:23.243Z,16.94
2023-05-24T15:14:55.357Z,16.94
2023-05-24T15:17:27.751Z,16.83
2023-05-24T15:20:00.189Z,16.84
2023-05-24T15:22:33.637Z,16.63
2023-05-24T15:25:43.285Z,16.33
2023-05-24T15:28:17.350Z,16.24
2023-05-24T15:30:49.885Z,16.09
2023-05-24T15:33:22.181Z,15.90
2023-05-24T15:35:55.058Z,15.85
2023-05-24T15:38:27.174Z,15.84
2023-05-24T15:40:59.310Z,15.74
2023-05-24T15:43:31.954Z,15.54
2023-05-24T15:46:06.093Z,15.57
2023-05-24T15:48:39.302Z,15.71
2023-05-24T15:53:48.394Z,15.83
2023-05-24T15:56:21.784Z,15.97
2023-05-24T15:58:54.045Z,16.06
2023-05-24T16:01:26.260Z,15.91
2023-05-24T16:03:58.400Z,15.98
2023-05-24T16:06:33.763Z,16.00
2023-05-24T16:09:07.249Z,16.04
2023-05-24T16:11:39.418Z,16.09
2023-05-24T16:14:11.661Z,15.81
2023-05-24T16:16:44.759Z,15.77
2023-05-24T16:19:17.182Z,15.72
2023-05-24T16:21:49.372Z,15.58
2023-05-24T16:24:21.545Z,15.65
2023-05-24T16:26:53.630Z,15.70
2023-05-24T16:29:26.891Z,15.83
2023-05-24T16:31:59.148Z,15.81
2023-05-24T16:34:38.732Z,15.69
2023-05-24T16:37:17.564Z,15.72
2023-05-24T16:39:49.723Z,15.70
2023-05-24T16:42:21.932Z,15.59
2023-05-24T16:44:54.232Z,15.57
2023-05-24T16:47:29.467Z,15.47
2023-05-24T16:50:04.189Z,15.26
2023-05-24T16:52:36.580Z,15.26
2023-05-24T16:55:10.899Z,15.38
2023-05-24T16:57:43.103Z,15.31
2023-05-24T17:00:34.156Z,15.42
2023-05-24T17:03:06.767Z,15.57
2023-05-24T17:05:39.705Z,15.54
2023-05-24T17:08:11.937Z,15.49
2023-05-24T17:10:44.311Z,15.44
2023-05-24T17:13:16.496Z,15.46
2023-05-24T17:15:52.065Z,15.36
2023-05-24T17:18:28.751Z,15.29
2023-05-24T17:21:03.542Z,15.20
2023-05-24T17:23:39.877Z,15.08
2023-05-24T17:26:14.974Z,15.11
2023-05-24T17:28:47.315Z,14.98
2023-05-24T17:31:19.698Z,14.97
2023-05-24T17:33:51.971Z,15.05
2023-05-24T17:36:24.235Z,15.03
2023-05-24T17:38:56.417Z,15.04
2023-05-24T17:41:28.652Z,14.79
2023-05-24T17:44:01.140Z,14.65
2023-05-24T17:46:35.757Z,14.63
2023-05-24T17:49:08.626Z,14.66
2023-05-24T17:51:40.919Z,14.61
2023-05-24T17:54:13.091Z,14.64
2023-05-24T17:56:45.320Z,14.65
2023-05-24T17:59:17.591Z,14.62
2023-05-24T18:01:49.864Z,14.57
2023-05-24T18:04:22.215Z,14.68
2023-05-24T18:06:55.572Z,14.59
2023-05-24T18:09:27.675Z,14.43
2023-05-24T18:11:59.775Z,14.37
2023-05-24T18:14:32.301Z,14.33
2023-05-24T18:17:05.171Z,14.33
2023-05-24T18:19:37.802Z,14.33
2023-05-24T18:22:09.920Z,14.29
2023-05-24T18:24:42.016Z,14.16
2023-05-24T18:27:14.316Z,14.19
2023-05-24T18:29:46.632Z,14.20
2023-05-24T18:32:20.036Z,14.31
2023-05-24T18:34:55.145Z,14.36
2023-05-24T18:37:28.229Z,14.29
2023-05-24T18:40:00.793Z,14.30
2023-05-24T18:42:33.080Z,14.18
2023-05-24T18:45:06.099Z,14.13
2023-05-24T18:47:38.703Z,14.01
2023-05-24T18:50:11.562Z,14.01
2023-05-24T18:52:47.228Z,14.11
2023-05-24T18:55:19.431Z,14.20
2023-05-24T18:57:51.748Z,14.22
2023-05-24T19:00:24.734Z,14.29
2023-05-24T19:02:57.093Z,14.31
2023-05-24T19:05:29.412Z,14.28
2023-05-24T19:08:01.583Z,14.24
2023-05-24T19:10:35.520Z,14.20
2023-05-24T19:13:07.957Z,14.19
2023-05-24T19:15:40.121Z,14.12
2023-05-24T19:18:12.221Z,14.11
2023-05-24T19:20:44.441Z,14.19
2023-05-24T19:23:16.631Z,14.12
2023-05-24T19:25:50.562Z,14.11
2023-05-24T19:28:22.927Z,14.08
2023-05-24T19:30:55.152Z,14.00
2023-05-24T19:33:27.357Z,14.01
2023-05-24T19:35:59.675Z,13.98
2023-05-24T19:38:31.958Z,13.96
2023-05-24T19:41:22.452Z,13.99
2023-05-24T19:43:58.744Z,13.93
2023-05-24T19:46:33.427Z,13.98
2023-05-24T19:49:05.772Z,13.95
2023-05-24T19:51:38.482Z,13.99
2023-05-24T19:54:11.343Z,14.00
2023-05-24T19:56:43.640Z,13.96
2023-05-24T19:59:15.922Z,13.90
2023-05-24T20:01:48.069Z,13.88
2023-05-24T20:04:20.308Z,13.82
2023-05-24T20:07:54.012Z,13.73
2023-05-24T20:10:27.830Z,13.71
2023-05-24T20:13:00.029Z,13.61
2023-05-24T20:15:32.465Z,13.55
2023-05-24T20:18:04.745Z,13.33
2023-05-24T20:21:23.538Z,13.29
2023-05-24T20:23:58.433Z,13.25
2023-05-24T20:26:33.554Z,13.28
2023-05-24T20:29:05.781Z,13.21
2023-05-24T20:31:38.072Z,13.20
2023-05-24T20:34:10.264Z,13.20
2023-05-24T20:36:43.940Z,13.23
2023-05-24T20:39:16.390Z,13.10
2023-05-24T20:41:48.513Z,13.11
2023-05-24T20:44:20.610Z,13.05
2023-05-24T20:46:52.730Z,13.11
2023-05-24T20:49:24.798Z,13.16
2023-05-24T20:51:58.797Z,13.18
2023-05-24T20:54:31.182Z,13.22
2023-05-24T20:57:03.476Z,13.25
2023-05-24T20:59:36.026Z,13.25
2023-05-24T21:02:08.197Z,13.31
2023-05-24T21:04:40.534Z,13.33
2023-05-24T21:07:12.638Z,13.38
2023-05-24T21:09:44.759Z,13.33
2023-05-24T21:12:16.944Z,13.19
2023-05-24T21:14:49.424Z,13.19
2023-05-24T21:17:21.643Z,13.20
2023-05-24T21:19:53.909Z,13.10
2023-05-24T21:22:26.130Z,13.13
2023-05-24T21:24:58.500Z,13.07
2023-05-24T21:27:33.199Z,13.09
2023-05-24T21:30:05.932Z,12.99
2023-05-24T21:32:38.254Z,13.00
2023-05-24T21:35:10.482Z,12.93
2023-05-24T21:37:42.706Z,12.90
2023-05-24T21:40:14.825Z,12.87
2023-05-24T21:42:46.951Z,12.85
2023-05-24T21:45:19.056Z,12.88
2023-05-24T21:47:51.363Z,12.93
2023-05-24T21:50:23.644Z,13.03
2023-05-24T21:52:55.885Z,12.93
2023-05-24T21:55:29.668Z,12.99
2023-05-24T21:58:01.816Z,12.93
2023-05-24T22:00:37.832Z,12.91
2023-05-24T22:03:13.115Z,12.92
2023-05-24T22:05:45.461Z,12.89
2023-05-24T22:08:19.848Z,12.90
2023-05-24T22:10:52.156Z,12.85
2023-05-24T22:13:24.462Z,12.89
2023-05-24T22:15:56.927Z,12.88
2023-05-24T22:18:30.760Z,12.86
2023-05-24T22:21:08.705Z,12.84
2023-05-24T22:23:41.584Z,12.79
2023-05-24T22:26:17.350Z,12.79
2023-05-24T22:29:00.780Z,12.78
2023-05-24T22:31:34.073Z,12.81
2023-05-24T22:34:11.541Z,12.77
2023-05-24T22:36:46.810Z,12.75
2023-05-24T22:39:19.351Z,12.84
2023-05-24T22:41:53.039Z,12.88
2023-05-24T22:44:26.572Z,12.90
2023-05-24T22:46:58.732Z,12.76
2023-05-24T22:49:34.444Z,12.78
2023-05-24T22:52:07.220Z,12.82
2023-05-24T22:54:39.328Z,12.86
2023-05-24T22:57:11.442Z,12.87
2023-05-24T22:59:45.997Z,12.88
2023-05-24T23:02:18.255Z,12.90
2023-05-24T23:04:50.425Z,12.77
2023-05-24T23:07:22.542Z,12.73
2023-05-24T23:09:54.933Z,12.71
2023-05-24T23:12:27.045Z,12.62
2023-05-24T23:14:59.688Z,12.52
2023-05-24T23:17:31.810Z,12.55
2023-05-24T23:20:05.281Z,12.55
2023-05-24T23:22:37.826Z,12.46
2023-05-24T23:25:10.704Z,12.46
2023-05-24T23:27:42.876Z,12.52
2023-05-24T23:30:15.171Z,12.52
2023-05-24T23:32:47.324Z,12.53
2023-05-24T23:35:19.570Z,12.52
2023-05-24T23:37:53.479Z,12.51
2023-05-24T23:40:28.792Z,12.47
2023-05-24T23:43:01.034Z,12.47
2023-05-24T23:45:33.177Z,12.52
2023-05-24T23:48:05.908Z,12.52
2023-05-24T23:50:53.143Z,12.56
2023-05-24T23:53:26.024Z,12.53
2023-05-24T23:55:58.139Z,12.47
2023-05-24T23:58:30.389Z,12.43
